createdAt,value
2018-09-24T00:01:10.052Z,0.00
2018-09-24T00:03:38.640Z,0.00
2018-09-24T00:06:08.600Z,0.00
2018-09-24T00:08:37.486Z,0.00
2018-09-24T00:11:06.393Z,0.37
2018-09-24T00:13:35.276Z,0.10
2018-09-24T00:16:03.843Z,0.00
2018-09-24T00:18:32.669Z,1.70
2018-09-24T00:21:01.328Z,0.00
2018-09-24T00:23:30.638Z,0.00
2018-09-24T00:25:59.332Z,0.20
2018-09-24T00:28:28.014Z,0.03
2018-09-24T00:30:56.616Z,3.40
2018-09-24T00:33:25.193Z,0.00
2018-09-24T00:35:53.914Z,0.10
2018-09-24T00:38:24.272Z,0.20
2018-09-24T00:40:52.932Z,0.00
2018-09-24T00:43:21.580Z,0.00
2018-09-24T00:45:50.188Z,0.00
2018-09-24T00:48:18.899Z,0.00
2018-09-24T00:50:47.659Z,0.10
2018-09-24T00:53:16.230Z,0.20
2018-09-24T00:55:44.829Z,0.03
2018-09-24T00:58:13.413Z,0.00
2018-09-24T01:00:42.025Z,0.00
2018-09-24T01:03:10.624Z,0.00
2018-09-24T01:05:40.176Z,0.10
2018-09-24T01:08:08.852Z,0.00
2018-09-24T01:10:38.064Z,0.00
2018-09-24T01:13:06.715Z,0.00
2018-09-24T01:15:35.489Z,0.00
2018-09-24T01:18:04.074Z,0.00
2018-09-24T01:20:32.668Z,0.17
2018-09-24T01:23:03.329Z,2.37
2018-09-24T01:25:32.472Z,0.00
2018-09-24T01:28:01.040Z,0.00
2018-09-24T01:30:29.777Z,0.30
2018-09-24T01:32:58.487Z,0.20
2018-09-24T01:35:27.880Z,0.30
2018-09-24T01:37:56.536Z,0.00
2018-09-24T01:40:25.164Z,0.00
2018-09-24T01:42:53.757Z,0.00
2018-09-24T01:45:22.337Z,0.00
2018-09-24T01:47:51.024Z,0.00
2018-09-24T01:50:19.712Z,0.00
2018-09-24T01:52:50.362Z,0.10
2018-09-24T01:55:19.081Z,0.00
2018-09-24T01:57:47.912Z,1.33
2018-09-24T02:00:16.477Z,0.00
2018-09-24T02:02:45.128Z,0.00
2018-09-24T02:05:14.820Z,0.00
2018-09-24T02:07:43.477Z,0.20
2018-09-24T02:10:12.141Z,0.00
2018-09-24T02:12:41.596Z,0.20
2018-09-24T02:15:10.255Z,0.00
2018-09-24T02:17:39.240Z,0.00
2018-09-24T02:20:08.261Z,0.43
2018-09-24T02:22:36.828Z,0.00
2018-09-24T02:25:05.456Z,0.00
2018-09-24T02:27:34.073Z,0.00
2018-09-24T02:30:02.882Z,0.00
2018-09-24T02:32:31.471Z,0.00
2018-09-24T02:35:00.097Z,0.00
2018-09-24T02:37:28.749Z,0.00
2018-09-24T02:39:57.308Z,0.10
2018-09-24T02:42:25.872Z,0.30
2018-09-24T02:44:58.012Z,0.00
2018-09-24T02:47:31.252Z,0.83
2018-09-24T02:50:00.405Z,0.07
2018-09-24T02:52:28.993Z,0.00
2018-09-24T02:54:57.584Z,0.30
2018-09-24T02:57:26.272Z,0.00
2018-09-24T02:59:54.864Z,0.13
2018-09-24T03:02:23.588Z,0.00
2018-09-24T03:04:56.180Z,0.00
2018-09-24T03:07:25.344Z,0.00
2018-09-24T03:09:54.076Z,1.13
2018-09-24T03:12:22.677Z,0.40
2018-09-24T03:14:51.338Z,10.03
2018-09-24T03:17:20.506Z,0.00
2018-09-24T03:19:49.095Z,0.03
2018-09-24T03:22:20.684Z,0.03
2018-09-24T03:24:49.264Z,0.10
2018-09-24T03:27:18.160Z,0.10
2018-09-24T03:29:46.861Z,0.23
2018-09-24T03:32:15.431Z,0.33
2018-09-24T03:34:44.090Z,0.00
2018-09-24T03:37:12.696Z,0.20
2018-09-24T03:39:41.268Z,0.00
2018-09-24T03:42:10.511Z,0.07
2018-09-24T03:44:39.164Z,0.43
2018-09-24T03:47:07.733Z,0.00
2018-09-24T03:49:36.368Z,0.03
2018-09-24T03:52:05.028Z,0.20
2018-09-24T03:54:33.667Z,0.00
2018-09-24T03:57:02.465Z,0.00
2018-09-24T03:59:31.100Z,1.97
2018-09-24T04:01:59.804Z,0.10
2018-09-24T04:04:33.577Z,0.07
2018-09-24T04:07:07.354Z,0.00
2018-09-24T04:12:14.933Z,0.63
2018-09-24T04:14:48.802Z,15.43
2018-09-24T04:17:22.548Z,0.00
2018-09-24T04:19:56.349Z,1.30
2018-09-24T04:22:30.204Z,0.10
2018-09-24T04:25:04.069Z,0.57
2018-09-24T04:27:41.913Z,0.30
2018-09-24T04:30:16.145Z,2.00
2018-09-24T04:32:50.148Z,0.37
2018-09-24T04:35:24.194Z,7.03
2018-09-24T04:37:58.112Z,5.17
2018-09-24T04:40:32.018Z,7.33
2018-09-24T04:43:05.940Z,6.03
2018-09-24T04:45:40.004Z,8.60
2018-09-24T04:48:14.028Z,8.77
2018-09-24T04:50:47.941Z,6.50
2018-09-24T04:53:21.784Z,4.47
2018-09-24T04:55:55.589Z,5.67
2018-09-24T04:58:29.389Z,6.13
2018-09-24T05:01:03.281Z,7.77
2018-09-24T05:03:37.037Z,7.43
2018-09-24T05:06:10.718Z,5.27
2018-09-24T05:08:44.547Z,6.10
2018-09-24T05:11:18.397Z,6.97
2018-09-24T05:13:52.508Z,4.37
2018-09-24T05:16:26.444Z,7.23
2018-09-24T05:19:00.583Z,7.50
2018-09-24T05:21:34.492Z,5.67
2018-09-24T05:24:08.402Z,6.40
2018-09-24T05:26:42.201Z,6.93
2018-09-24T05:29:16.153Z,8.27
2018-09-24T05:31:49.991Z,5.57
2018-09-24T05:34:23.731Z,4.83
2018-09-24T05:36:58.747Z,6.47
2018-09-24T05:39:33.803Z,4.53
2018-09-24T05:42:07.794Z,4.83
2018-09-24T05:44:41.675Z,5.30
2018-09-24T05:47:15.556Z,2.50
2018-09-24T05:49:49.366Z,5.63
2018-09-24T05:52:23.317Z,5.10
2018-09-24T05:54:57.514Z,3.53
2018-09-24T05:57:31.293Z,5.77
2018-09-24T06:00:05.024Z,7.37
2018-09-24T06:02:38.843Z,5.33
2018-09-24T06:05:12.832Z,7.13
2018-09-24T06:07:46.625Z,5.07
2018-09-24T06:10:20.536Z,5.53
2018-09-24T06:12:54.845Z,5.63
2018-09-24T06:15:28.893Z,3.87
2018-09-24T06:18:02.656Z,4.73
2018-09-24T06:20:36.840Z,5.40
2018-09-24T06:23:10.678Z,5.33
2018-09-24T06:25:44.748Z,6.27
2018-09-24T06:28:18.648Z,2.10
2018-09-24T06:30:52.733Z,4.50
2018-09-24T06:33:26.721Z,5.53
2018-09-24T06:36:00.645Z,7.77
2018-09-24T06:38:34.482Z,8.03
2018-09-24T06:41:08.304Z,7.23
2018-09-24T06:43:42.380Z,5.37
2018-09-24T06:46:16.184Z,7.20
2018-09-24T06:48:50.040Z,4.37
2018-09-24T06:51:23.741Z,5.90
2018-09-24T06:53:57.828Z,5.90
2018-09-24T06:56:31.944Z,6.33
2018-09-24T06:59:05.831Z,4.70
2018-09-24T07:01:39.695Z,5.13
2018-09-24T07:04:13.536Z,3.90
2018-09-24T07:06:47.469Z,5.10
2018-09-24T07:09:21.424Z,5.70
2018-09-24T07:11:55.404Z,5.40
2018-09-24T07:14:29.402Z,5.10
2018-09-24T07:17:03.476Z,3.60
2018-09-24T07:19:37.432Z,4.83
2018-09-24T07:22:11.383Z,6.97
2018-09-24T07:24:45.502Z,5.60
2018-09-24T07:27:19.591Z,6.33
2018-09-24T07:29:53.479Z,4.43
2018-09-24T07:32:27.376Z,6.73
2018-09-24T07:35:01.112Z,5.03
2018-09-24T07:37:34.902Z,5.93
2018-09-24T07:40:08.764Z,5.30
2018-09-24T07:42:42.614Z,3.90
2018-09-24T07:45:16.422Z,6.90
2018-09-24T07:47:51.072Z,3.60
2018-09-24T07:50:25.087Z,6.20
2018-09-24T07:52:58.988Z,8.07
2018-09-24T07:55:32.941Z,4.67
2018-09-24T07:58:06.996Z,3.93
2018-09-24T08:00:40.817Z,5.90
2018-09-24T08:03:14.733Z,6.93
2018-09-24T08:05:48.668Z,3.77
2018-09-24T08:08:22.485Z,6.97
2018-09-24T08:10:56.432Z,4.70
2018-09-24T08:13:30.388Z,3.53
2018-09-24T08:16:04.317Z,7.40
2018-09-24T08:18:38.196Z,4.03
2018-09-24T08:21:12.161Z,7.23
2018-09-24T08:23:46.100Z,6.87
2018-09-24T08:26:20.084Z,5.63
2018-09-24T08:28:54.069Z,7.17
2018-09-24T08:31:28.236Z,8.00
2018-09-24T08:34:02.169Z,7.03
2018-09-24T08:36:36.070Z,5.57
2018-09-24T08:39:12.178Z,4.80
2018-09-24T08:41:46.325Z,8.10
2018-09-24T08:44:20.393Z,6.67
2018-09-24T08:46:54.352Z,5.30
2018-09-24T08:49:28.508Z,3.23
2018-09-24T08:52:02.464Z,4.70
2018-09-24T08:54:36.388Z,5.07
2018-09-24T08:57:10.385Z,6.53
2018-09-24T08:59:44.667Z,8.03
2018-09-24T09:02:18.482Z,5.23
2018-09-24T09:04:52.395Z,8.70
2018-09-24T09:07:26.191Z,5.47
2018-09-24T09:10:00.763Z,3.20
2018-09-24T09:12:35.256Z,3.10
2018-09-24T09:15:09.368Z,4.00
2018-09-24T09:17:43.291Z,4.60
2018-09-24T09:20:17.420Z,5.33
2018-09-24T09:22:51.436Z,4.57
2018-09-24T09:25:25.362Z,4.57
2018-09-24T09:27:59.288Z,3.30
2018-09-24T09:30:33.152Z,4.47
2018-09-24T09:33:06.925Z,6.33
2018-09-24T09:35:40.900Z,4.17
2018-09-24T09:38:14.915Z,5.33
2018-09-24T09:40:48.736Z,7.13
2018-09-24T09:43:23.377Z,4.77
2018-09-24T09:45:57.272Z,4.77
2018-09-24T09:48:31.595Z,4.10
2018-09-24T09:51:06.324Z,4.87
2018-09-24T09:53:40.224Z,4.67
2018-09-24T09:56:14.299Z,4.97
2018-09-24T09:58:48.127Z,7.50
2018-09-24T10:01:22.077Z,5.10
2018-09-24T10:03:55.787Z,6.90
2018-09-24T10:06:29.676Z,3.87
2018-09-24T10:09:03.450Z,5.40
2018-09-24T10:11:37.205Z,3.47
2018-09-24T10:14:11.065Z,6.07
2018-09-24T10:16:44.860Z,5.20
2018-09-24T10:19:18.985Z,3.73
2018-09-24T10:21:52.828Z,4.87
2018-09-24T10:24:26.764Z,4.27
2018-09-24T10:27:00.656Z,3.37
2018-09-24T10:29:34.413Z,2.73
2018-09-24T10:32:08.524Z,4.47
2018-09-24T10:34:42.777Z,5.33
2018-09-24T10:37:16.506Z,4.27
2018-09-24T10:39:50.277Z,4.73
2018-09-24T10:42:24.215Z,4.13
2018-09-24T10:44:57.843Z,4.30
2018-09-24T10:47:31.678Z,7.83
2018-09-24T10:50:05.343Z,4.00
2018-09-24T10:52:39.144Z,2.77
2018-09-24T10:55:12.783Z,6.83
2018-09-24T10:57:46.693Z,3.87
2018-09-24T11:00:20.358Z,4.67
2018-09-24T11:02:54.309Z,3.00
2018-09-24T11:05:28.245Z,3.23
2018-09-24T11:08:02.170Z,2.77
2018-09-24T11:10:35.829Z,7.37
2018-09-24T11:13:09.736Z,3.93
2018-09-24T11:15:43.788Z,4.20
2018-09-24T11:18:17.844Z,4.53
2018-09-24T11:20:51.825Z,6.13
2018-09-24T11:23:25.757Z,5.03
2018-09-24T11:26:00.217Z,3.50
2018-09-24T11:28:33.969Z,5.93
2018-09-24T11:31:08.000Z,3.90
2018-09-24T11:33:41.783Z,4.57
2018-09-24T11:36:15.740Z,4.90
2018-09-24T11:38:49.594Z,4.77
2018-09-24T11:41:23.501Z,5.40
2018-09-24T11:43:57.390Z,7.67
2018-09-24T11:46:31.602Z,4.77
2018-09-24T11:49:05.465Z,4.00
2018-09-24T11:51:39.329Z,4.67
2018-09-24T11:54:13.208Z,3.30
2018-09-24T11:56:47.069Z,4.80
2018-09-24T11:59:21.130Z,4.90
2018-09-24T12:01:55.118Z,4.83
2018-09-24T12:04:29.032Z,5.90
2018-09-24T12:07:02.888Z,4.07
2018-09-24T12:09:36.753Z,4.27
2018-09-24T12:12:10.804Z,4.27
2018-09-24T12:14:44.658Z,7.17
2018-09-24T12:17:18.697Z,4.70
2018-09-24T12:19:52.600Z,4.87
2018-09-24T12:22:26.453Z,7.73
2018-09-24T12:25:00.329Z,4.60
2018-09-24T12:27:34.338Z,4.03
2018-09-24T12:30:08.176Z,3.63
2018-09-24T12:32:42.120Z,4.53
2018-09-24T12:35:16.332Z,4.77
2018-09-24T12:37:50.208Z,6.10
2018-09-24T12:40:24.173Z,5.87
2018-09-24T12:42:58.093Z,4.03
2018-09-24T12:45:32.130Z,3.57
2018-09-24T12:48:05.963Z,6.30
2018-09-24T12:50:40.048Z,3.33
2018-09-24T12:53:13.748Z,3.03
2018-09-24T12:55:47.757Z,4.03
2018-09-24T12:58:21.755Z,3.83
2018-09-24T13:00:55.788Z,3.77
2018-09-24T13:03:30.143Z,5.63
2018-09-24T13:06:04.016Z,4.03
2018-09-24T13:08:37.812Z,2.60
2018-09-24T13:11:11.863Z,3.50
2018-09-24T13:13:45.708Z,3.80
2018-09-24T13:16:19.485Z,3.40
2018-09-24T13:18:53.702Z,4.40
2018-09-24T13:21:27.589Z,3.23
2018-09-24T13:24:01.301Z,3.27
2018-09-24T13:26:35.223Z,4.17
2018-09-24T13:29:09.051Z,2.40
2018-09-24T13:31:42.796Z,3.73
2018-09-24T13:34:16.643Z,5.87
2018-09-24T13:36:51.106Z,4.80
2018-09-24T13:39:24.916Z,2.83
2018-09-24T13:41:58.685Z,4.40
2018-09-24T13:44:32.848Z,3.03
2018-09-24T13:47:06.716Z,2.70
2018-09-24T13:49:40.733Z,5.80
2018-09-24T13:52:14.408Z,5.17
2018-09-24T13:54:48.344Z,2.17
2018-09-24T13:57:22.177Z,4.77
2018-09-24T13:59:55.909Z,2.17
2018-09-24T14:02:29.922Z,6.53
2018-09-24T14:05:03.750Z,3.30
2018-09-24T14:07:37.726Z,3.23
2018-09-24T14:10:11.736Z,5.83
2018-09-24T14:12:45.405Z,3.70
2018-09-24T14:15:19.201Z,5.97
2018-09-24T14:17:52.997Z,11.27
2018-09-24T14:20:26.947Z,3.33
2018-09-24T14:23:00.785Z,2.47
2018-09-24T14:25:34.696Z,3.03
2018-09-24T14:28:08.659Z,2.77
2018-09-24T14:30:42.806Z,6.10
2018-09-24T14:33:16.739Z,2.00
2018-09-24T14:35:50.576Z,1.13
2018-09-24T14:38:24.529Z,2.03
2018-09-24T14:41:00.513Z,1.13
2018-09-24T14:43:34.372Z,2.17
2018-09-24T14:46:08.221Z,1.77
2018-09-24T14:48:42.130Z,3.87
2018-09-24T14:51:15.987Z,2.10
2018-09-24T14:53:49.860Z,2.43
2018-09-24T14:56:24.639Z,1.70
2018-09-24T14:58:58.596Z,4.13
2018-09-24T15:01:32.600Z,2.70
2018-09-24T15:04:07.284Z,2.33
2018-09-24T15:06:41.239Z,2.23
2018-09-24T15:09:15.264Z,1.80
2018-09-24T15:11:49.126Z,3.07
2018-09-24T15:14:23.184Z,1.90
2018-09-24T15:16:57.064Z,2.00
2018-09-24T15:19:30.887Z,1.77
2018-09-24T15:22:04.720Z,2.43
2018-09-24T15:24:38.816Z,1.83
2018-09-24T15:27:13.202Z,2.43
2018-09-24T15:29:47.228Z,2.70
2018-09-24T15:32:21.291Z,1.97
2018-09-24T15:34:55.336Z,2.40
2018-09-24T15:37:29.141Z,2.43
2018-09-24T15:40:02.905Z,2.33
2018-09-24T15:42:36.793Z,3.60
2018-09-24T15:45:10.561Z,2.77
2018-09-24T15:47:44.337Z,1.43
2018-09-24T15:50:18.410Z,3.03
2018-09-24T15:52:52.336Z,3.40
2018-09-24T15:55:26.392Z,1.93
2018-09-24T15:58:00.218Z,1.80
2018-09-24T16:00:34.060Z,2.93
2018-09-24T16:03:07.853Z,2.33
2018-09-24T16:05:42.678Z,4.97
2018-09-24T16:08:16.493Z,1.97
2018-09-24T16:10:50.184Z,1.83
2018-09-24T16:13:24.107Z,3.27
2018-09-24T16:15:57.996Z,3.03
2018-09-24T16:18:32.216Z,2.20
2018-09-24T16:21:06.161Z,2.40
2018-09-24T16:23:39.918Z,2.93
2018-09-24T16:26:14.053Z,3.00
2018-09-24T16:28:47.708Z,2.10
2018-09-24T16:31:21.423Z,2.73
2018-09-24T16:33:55.255Z,1.30
2018-09-24T16:36:29.205Z,1.50
2018-09-24T16:39:03.128Z,4.30
2018-09-24T16:41:36.947Z,1.60
2018-09-24T16:44:10.860Z,1.10
2018-09-24T16:46:44.805Z,3.33
2018-09-24T16:49:18.489Z,3.93
2018-09-24T16:51:52.353Z,2.97
2018-09-24T16:54:26.048Z,2.97
2018-09-24T16:56:59.950Z,2.27
2018-09-24T16:59:33.648Z,3.10
2018-09-24T17:02:07.473Z,2.47
2018-09-24T17:04:41.250Z,3.93
2018-09-24T17:07:14.926Z,2.67
2018-09-24T17:09:48.597Z,1.97
2018-09-24T17:12:22.383Z,2.33
2018-09-24T17:14:56.265Z,2.03
2018-09-24T17:17:30.192Z,2.07
2018-09-24T17:20:03.975Z,2.07
2018-09-24T17:22:37.875Z,3.00
2018-09-24T17:25:12.042Z,2.23
2018-09-24T17:27:45.857Z,3.40
2018-09-24T17:30:19.774Z,2.57
2018-09-24T17:32:53.589Z,2.47
2018-09-24T17:35:27.535Z,2.93
2018-09-24T17:38:01.617Z,3.67
2018-09-24T17:40:36.743Z,2.73
2018-09-24T17:43:10.457Z,2.43
2018-09-24T17:45:44.144Z,2.27
2018-09-24T17:48:17.923Z,3.43
2018-09-24T17:50:51.816Z,4.43
2018-09-24T17:53:25.828Z,3.30
2018-09-24T17:55:59.628Z,2.87
2018-09-24T17:58:33.347Z,4.30
2018-09-24T18:01:07.171Z,4.57
2018-09-24T18:03:41.064Z,2.57
2018-09-24T18:06:14.989Z,3.57
2018-09-24T18:08:48.717Z,1.30
2018-09-24T18:11:22.517Z,2.47
2018-09-24T18:13:56.401Z,0.50
2018-09-24T18:16:30.195Z,1.73
2018-09-24T18:19:03.843Z,1.47
2018-09-24T18:21:37.773Z,2.00
2018-09-24T18:24:11.677Z,1.33
2018-09-24T18:26:45.457Z,1.60
2018-09-24T18:29:19.200Z,0.60
2018-09-24T18:31:52.840Z,1.53
2018-09-24T18:34:26.613Z,2.37
2018-09-24T18:37:00.392Z,1.20
2018-09-24T18:39:34.213Z,2.23
2018-09-24T18:42:08.691Z,1.90
2018-09-24T18:44:43.392Z,1.47
2018-09-24T18:47:17.285Z,2.80
2018-09-24T18:49:51.320Z,3.40
2018-09-24T18:52:25.129Z,1.33
2018-09-24T18:54:58.884Z,2.17
2018-09-24T18:57:32.614Z,3.03
2018-09-24T19:00:06.622Z,2.20
2018-09-24T19:02:40.420Z,1.83
2018-09-24T19:05:14.226Z,2.90
2018-09-24T19:07:48.178Z,2.43
2018-09-24T19:10:21.862Z,2.97
2018-09-24T19:12:55.542Z,2.00
2018-09-24T19:15:29.197Z,4.50
2018-09-24T19:18:02.983Z,6.70
2018-09-24T19:20:36.659Z,4.97
2018-09-24T19:23:10.506Z,7.07
2018-09-24T19:25:44.283Z,5.47
2018-09-24T19:28:17.953Z,5.60
2018-09-24T19:30:51.851Z,5.07
2018-09-24T19:33:25.753Z,3.90
2018-09-24T19:35:59.402Z,3.43
2018-09-24T19:38:33.193Z,2.40
2018-09-24T19:41:06.876Z,4.93
2018-09-24T19:43:40.517Z,3.80
2018-09-24T19:46:14.193Z,2.47
2018-09-24T19:48:47.824Z,4.23
2018-09-24T19:51:21.600Z,4.37
2018-09-24T19:53:55.481Z,2.60
2018-09-24T19:56:29.168Z,3.70
2018-09-24T19:59:02.851Z,4.10
2018-09-24T20:01:36.520Z,4.17
2018-09-24T20:04:10.621Z,4.93
2018-09-24T20:06:44.265Z,6.77
2018-09-24T20:09:17.928Z,5.50
2018-09-24T20:11:51.669Z,4.23
2018-09-24T20:14:25.435Z,3.83
2018-09-24T20:16:59.250Z,3.87
2018-09-24T20:19:33.409Z,4.67
2018-09-24T20:22:07.192Z,4.87
2018-09-24T20:24:40.972Z,3.70
2018-09-24T20:27:14.917Z,4.23
2018-09-24T20:29:48.688Z,4.37
2018-09-24T20:32:22.468Z,3.27
2018-09-24T20:34:56.239Z,5.73
2018-09-24T20:37:29.876Z,3.53
2018-09-24T20:40:03.594Z,3.67
2018-09-24T20:42:37.558Z,5.30
2018-09-24T20:45:12.085Z,3.20
2018-09-24T20:47:46.132Z,4.97
2018-09-24T20:50:20.168Z,4.00
2018-09-24T20:52:54.040Z,5.03
2018-09-24T20:55:27.921Z,4.30
2018-09-24T20:58:01.558Z,4.23
2018-09-24T21:00:35.177Z,4.60
2018-09-24T21:03:09.113Z,2.53
2018-09-24T21:05:42.867Z,3.17
2018-09-24T21:08:16.804Z,2.30
2018-09-24T21:10:50.690Z,3.57
2018-09-24T21:13:24.521Z,5.67
2018-09-24T21:15:58.323Z,2.97
2018-09-24T21:18:32.060Z,2.47
2018-09-24T21:21:05.861Z,3.83
2018-09-24T21:23:39.650Z,4.40
2018-09-24T21:26:13.462Z,6.40
2018-09-24T21:28:47.326Z,4.13
2018-09-24T21:31:20.978Z,5.07
2018-09-24T21:33:54.914Z,3.03
2018-09-24T21:36:28.858Z,5.23
2018-09-24T21:39:02.950Z,3.50
2018-09-24T21:41:36.887Z,6.87
2018-09-24T21:44:10.614Z,4.90
2018-09-24T21:46:45.455Z,5.07
2018-09-24T21:49:19.490Z,3.10
2018-09-24T21:51:53.377Z,4.60
2018-09-24T21:54:27.223Z,5.13
2018-09-24T21:57:01.280Z,3.30
2018-09-24T21:59:35.124Z,4.23
2018-09-24T22:02:09.835Z,4.87
2018-09-24T22:04:43.663Z,5.10
2018-09-24T22:07:17.779Z,3.43
2018-09-24T22:09:51.741Z,7.50
2018-09-24T22:12:25.453Z,6.20
2018-09-24T22:14:59.393Z,5.43
2018-09-24T22:17:33.429Z,4.53
2018-09-24T22:20:07.205Z,5.33
2018-09-24T22:22:41.013Z,3.37
2018-09-24T22:25:14.813Z,6.23
2018-09-24T22:27:48.749Z,6.07
2018-09-24T22:30:23.141Z,5.83
2018-09-24T22:32:57.778Z,3.30
2018-09-24T22:35:31.778Z,5.27
2018-09-24T22:38:05.833Z,5.27
2018-09-24T22:40:39.793Z,3.03
2018-09-24T22:43:13.787Z,3.40
2018-09-24T22:45:48.902Z,5.17
2018-09-24T22:48:22.621Z,3.70
2018-09-24T22:50:56.265Z,4.60
2018-09-24T22:53:30.598Z,3.90
2018-09-24T22:56:04.630Z,3.97
2018-09-24T22:58:39.417Z,2.63
2018-09-24T23:01:13.450Z,2.43
2018-09-24T23:03:47.152Z,4.23
2018-09-24T23:06:21.230Z,3.50
2018-09-24T23:08:55.238Z,2.63
2018-09-24T23:11:29.111Z,3.50
2018-09-24T23:14:03.010Z,2.93
2018-09-24T23:16:36.863Z,2.67
2018-09-24T23:19:11.017Z,2.10
2018-09-24T23:21:45.069Z,2.53
2018-09-24T23:24:19.108Z,2.83
2018-09-24T23:26:53.154Z,4.57
2018-09-24T23:29:26.963Z,4.13
2018-09-24T23:32:01.234Z,2.13
2018-09-24T23:34:35.014Z,3.20
2018-09-24T23:37:09.012Z,3.13
2018-09-24T23:39:43.127Z,3.83
2018-09-24T23:42:16.974Z,2.47
2018-09-24T23:44:50.686Z,3.17
2018-09-24T23:47:24.459Z,2.60
2018-09-24T23:49:59.041Z,3.43
2018-09-24T23:52:32.962Z,3.53
2018-09-24T23:55:06.893Z,4.57
2018-09-24T23:57:41.304Z,2.77
